createdAt,value
2022-12-05T00:00:09.814Z,63.07
2022-12-05T00:03:13.783Z,67.10
2022-12-05T00:06:16.709Z,68.07
2022-12-05T00:09:22.064Z,71.47
2022-12-05T00:12:24.803Z,64.10
2022-12-05T00:18:50.835Z,70.53
2022-12-05T00:21:53.603Z,68.45
2022-12-05T00:24:58.962Z,62.70
2022-12-05T00:28:01.650Z,67.18
2022-12-05T00:31:06.561Z,65.97
2022-12-05T00:34:10.589Z,64.30
2022-12-05T00:37:13.273Z,69.03
2022-12-05T00:40:19.062Z,62.53
2022-12-05T00:43:21.766Z,62.53
2022-12-05T00:46:27.835Z,71.70
2022-12-05T00:49:30.617Z,65.90
2022-12-05T00:52:34.592Z,76.40
2022-12-05T00:55:39.218Z,63.75
2022-12-05T00:58:44.240Z,65.60
2022-12-05T01:01:49.660Z,62.00
2022-12-05T01:04:52.391Z,56.93
2022-12-05T01:07:56.390Z,64.50
2022-12-05T01:11:00.815Z,62.38
2022-12-05T01:14:05.208Z,69.18
2022-12-05T01:17:09.254Z,64.83
2022-12-05T01:20:14.018Z,56.13
2022-12-05T01:23:18.626Z,62.97
2022-12-05T01:26:23.855Z,66.80
2022-12-05T01:29:28.187Z,62.03
2022-12-05T01:32:30.926Z,67.17
2022-12-05T01:35:35.589Z,63.70
2022-12-05T01:38:40.581Z,68.28
2022-12-05T01:41:46.968Z,63.55
2022-12-05T01:45:09.641Z,68.68
2022-12-05T01:48:16.119Z,68.63
2022-12-05T01:51:20.417Z,61.87
2022-12-05T01:54:24.211Z,66.18
2022-12-05T01:57:29.749Z,66.07
2022-12-05T02:00:33.698Z,61.92
2022-12-05T02:03:38.588Z,67.43
2022-12-05T02:07:02.012Z,66.80
2022-12-05T02:10:05.490Z,65.80
2022-12-05T02:13:23.038Z,66.18
2022-12-05T02:16:38.472Z,74.50
2022-12-05T02:19:57.261Z,66.23
2022-12-05T02:23:26.820Z,74.03
2022-12-05T02:26:58.212Z,63.70
2022-12-05T02:30:08.949Z,70.05
2022-12-05T02:33:21.537Z,68.07
2022-12-05T02:36:29.880Z,71.77
2022-12-05T02:39:44.153Z,70.67
2022-12-05T02:42:52.372Z,65.47
2022-12-05T02:46:02.148Z,68.18
2022-12-05T02:49:10.941Z,62.80
2022-12-05T02:52:16.288Z,57.90
2022-12-05T02:55:22.902Z,66.90
2022-12-05T02:58:32.101Z,64.38
2022-12-05T03:01:37.497Z,63.50
2022-12-05T03:04:41.645Z,60.40
2022-12-05T03:07:47.989Z,59.40
2022-12-05T03:10:53.890Z,60.07
2022-12-05T03:14:02.060Z,59.42
2022-12-05T03:17:10.544Z,60.38
2022-12-05T03:20:23.101Z,64.30
2022-12-05T03:23:33.475Z,56.77
2022-12-05T03:26:50.827Z,55.70
2022-12-05T03:29:59.754Z,49.55
2022-12-05T03:33:08.995Z,57.63
2022-12-05T03:36:18.189Z,58.17
2022-12-05T03:39:26.460Z,52.20
2022-12-05T03:42:34.555Z,50.63
2022-12-05T03:45:45.698Z,53.22
2022-12-05T03:48:58.699Z,53.15
2022-12-05T03:52:08.859Z,46.55
2022-12-05T03:55:15.961Z,39.20
2022-12-05T03:58:25.626Z,43.60
2022-12-05T04:01:33.060Z,43.85
2022-12-05T04:04:40.890Z,51.20
2022-12-05T04:07:48.570Z,41.55
2022-12-05T04:10:55.818Z,40.67
2022-12-05T04:14:03.347Z,37.23
2022-12-05T04:17:10.492Z,40.95
2022-12-05T04:20:35.821Z,44.20
2022-12-05T04:23:42.387Z,37.88
2022-12-05T04:26:57.720Z,38.37
2022-12-05T04:30:04.741Z,38.23
2022-12-05T04:33:12.861Z,40.75
2022-12-05T04:36:22.708Z,38.42
2022-12-05T04:39:30.297Z,36.97
2022-12-05T04:42:37.772Z,35.80
2022-12-05T04:45:42.495Z,37.73
2022-12-05T04:48:51.280Z,36.40
2022-12-05T04:51:58.353Z,36.45
2022-12-05T04:55:08.344Z,37.17
2022-12-05T04:58:14.956Z,34.40
2022-12-05T05:01:23.948Z,36.15
2022-12-05T05:04:32.357Z,34.90
2022-12-05T05:07:45.622Z,34.55
2022-12-05T05:10:57.891Z,32.10
2022-12-05T05:14:02.551Z,36.20
2022-12-05T05:17:05.518Z,38.17
2022-12-05T05:20:24.548Z,33.47
2022-12-05T05:23:28.619Z,36.17
2022-12-05T05:26:33.883Z,35.67
2022-12-05T05:29:37.875Z,33.23
2022-12-05T05:32:40.564Z,37.10
2022-12-05T05:35:44.578Z,33.28
2022-12-05T05:38:50.280Z,33.75
2022-12-05T05:41:54.242Z,34.50
2022-12-05T05:44:56.953Z,34.17
2022-12-05T05:48:00.904Z,34.92
2022-12-05T05:51:07.230Z,31.92
2022-12-05T05:54:11.542Z,32.13
2022-12-05T05:57:20.205Z,30.27
2022-12-05T06:00:23.436Z,29.63
2022-12-05T06:03:27.564Z,28.73
2022-12-05T06:06:30.432Z,31.77
2022-12-05T06:09:34.535Z,30.33
2022-12-05T06:12:38.530Z,27.65
2022-12-05T06:15:41.228Z,28.43
2022-12-05T06:18:45.442Z,25.35
2022-12-05T06:21:50.187Z,25.67
2022-12-05T06:24:55.485Z,29.45
2022-12-05T06:27:58.242Z,23.85
2022-12-05T06:31:02.199Z,25.10
2022-12-05T06:34:05.879Z,21.98
2022-12-05T06:37:10.150Z,24.42
2022-12-05T06:40:16.898Z,21.52
2022-12-05T06:43:20.858Z,23.55
2022-12-05T06:46:25.139Z,24.20
2022-12-05T06:49:37.692Z,26.80
2022-12-05T06:52:40.848Z,20.92
2022-12-05T06:55:46.240Z,21.92
2022-12-05T06:58:50.817Z,23.30
2022-12-05T07:01:54.822Z,23.33
2022-12-05T07:04:57.672Z,23.25
2022-12-05T07:08:01.649Z,21.92
2022-12-05T07:11:05.904Z,22.30
2022-12-05T07:14:31.211Z,25.05
2022-12-05T07:17:37.648Z,21.07
2022-12-05T07:21:10.758Z,23.88
2022-12-05T07:24:06.170Z,22.30
2022-12-05T07:27:10.254Z,21.75
2022-12-05T07:30:14.708Z,22.30
2022-12-05T07:33:17.420Z,25.23
2022-12-05T07:36:23.614Z,22.40
2022-12-05T07:39:26.332Z,23.55
2022-12-05T07:49:15.751Z,23.17
2022-12-05T07:52:19.797Z,23.08
2022-12-05T07:55:22.511Z,22.13
2022-12-05T07:58:27.844Z,21.05
2022-12-05T08:01:32.208Z,21.10
2022-12-05T08:04:34.904Z,19.57
2022-12-05T08:07:37.639Z,21.50
2022-12-05T08:10:40.431Z,21.90
2022-12-05T08:13:46.137Z,21.98
2022-12-05T08:16:48.921Z,24.83
2022-12-05T08:19:53.026Z,20.83
2022-12-05T08:22:55.726Z,22.08
2022-12-05T08:26:04.101Z,22.58
2022-12-05T08:29:12.323Z,23.08
2022-12-05T08:32:15.008Z,24.83
2022-12-05T08:35:19.138Z,22.53
2022-12-05T08:38:21.871Z,19.95
2022-12-05T08:41:29.670Z,20.75
2022-12-05T08:44:34.979Z,20.60
2022-12-05T08:47:37.733Z,23.27
2022-12-05T08:50:41.878Z,21.20
2022-12-05T08:53:45.051Z,21.58
2022-12-05T08:56:49.096Z,23.08
2022-12-05T08:59:53.165Z,21.83
2022-12-05T09:02:57.348Z,23.20
2022-12-05T09:06:07.161Z,23.07
2022-12-05T09:09:12.832Z,22.75
2022-12-05T09:12:16.885Z,20.42
2022-12-05T09:15:21.144Z,23.25
2022-12-05T09:18:25.138Z,21.63
2022-12-05T09:24:53.559Z,22.38
2022-12-05T09:31:22.625Z,21.92
2022-12-05T09:34:27.220Z,21.73
2022-12-05T09:37:39.395Z,21.63
2022-12-05T09:40:44.155Z,20.83
2022-12-05T09:43:53.666Z,21.25
2022-12-05T09:47:03.138Z,21.48
2022-12-05T09:50:15.480Z,20.88
2022-12-05T09:53:29.656Z,22.53
2022-12-05T09:56:32.439Z,21.20
2022-12-05T09:59:37.530Z,23.42
2022-12-05T10:02:52.822Z,22.35
2022-12-05T10:06:06.887Z,24.20
2022-12-05T10:09:28.552Z,22.60
2022-12-05T10:12:49.075Z,22.52
2022-12-05T10:15:57.417Z,19.65
2022-12-05T10:19:07.856Z,25.25
2022-12-05T10:22:20.406Z,22.60
2022-12-05T10:25:28.504Z,22.50
2022-12-05T10:28:37.154Z,24.98
2022-12-05T10:31:43.204Z,23.17
2022-12-05T10:34:47.995Z,21.90
2022-12-05T10:37:55.036Z,21.83
2022-12-05T10:41:03.774Z,22.67
2022-12-05T10:44:08.038Z,21.35
2022-12-05T10:47:12.432Z,26.60
2022-12-05T10:50:26.166Z,21.33
2022-12-05T10:53:34.357Z,22.40
2022-12-05T10:56:40.914Z,23.93
2022-12-05T10:59:47.578Z,26.17
2022-12-05T11:02:52.550Z,22.67
2022-12-05T11:05:59.782Z,21.95
2022-12-05T11:09:07.047Z,21.90
2022-12-05T11:12:20.339Z,22.73
2022-12-05T11:15:25.798Z,23.52
2022-12-05T11:18:33.088Z,24.58
2022-12-05T11:21:44.839Z,22.40
2022-12-05T11:24:47.573Z,23.25
2022-12-05T11:27:51.567Z,21.10
2022-12-05T11:31:00.040Z,22.42
2022-12-05T11:34:12.601Z,25.45
2022-12-05T11:37:24.735Z,20.77
2022-12-05T11:40:38.503Z,20.50
2022-12-05T11:43:55.871Z,25.90
2022-12-05T11:50:42.220Z,20.02
2022-12-05T11:54:35.920Z,24.30
2022-12-05T11:58:00.506Z,23.02
2022-12-05T12:01:14.365Z,21.93
2022-12-05T12:04:47.446Z,23.75
2022-12-05T12:08:03.581Z,23.42
2022-12-05T12:11:15.275Z,23.90
2022-12-05T12:14:27.530Z,20.60
2022-12-05T12:17:37.780Z,26.83
2022-12-05T12:20:57.612Z,21.38
2022-12-05T12:24:15.493Z,24.70
2022-12-05T12:27:29.287Z,25.23
2022-12-05T12:30:49.413Z,24.48
2022-12-05T12:33:59.391Z,27.60
2022-12-05T12:37:10.797Z,24.40
2022-12-05T12:43:55.909Z,25.95
2022-12-05T12:47:03.608Z,26.17
2022-12-05T12:50:15.851Z,26.33
2022-12-05T12:53:50.392Z,25.98
2022-12-05T12:57:03.536Z,23.77
2022-12-05T13:00:18.507Z,24.85
2022-12-05T13:03:25.308Z,26.13
2022-12-05T13:06:33.365Z,26.80
2022-12-05T13:09:46.117Z,27.30
2022-12-05T13:12:52.796Z,26.35
2022-12-05T13:16:02.068Z,24.25
2022-12-05T13:19:07.307Z,27.73
2022-12-05T13:22:12.239Z,26.23
2022-12-05T13:25:17.280Z,23.95
2022-12-05T13:28:31.858Z,29.58
2022-12-05T13:31:41.969Z,27.27
2022-12-05T13:34:51.716Z,29.45
2022-12-05T13:38:11.801Z,30.53
2022-12-05T13:41:33.893Z,28.50
2022-12-05T13:44:42.205Z,27.10
2022-12-05T13:47:57.047Z,27.85
2022-12-05T13:51:05.715Z,27.88
2022-12-05T13:54:17.149Z,26.70
2022-12-05T13:57:55.277Z,28.08
2022-12-05T14:01:38.102Z,30.75
2022-12-05T14:04:51.457Z,34.33
2022-12-05T14:11:19.246Z,32.67
2022-12-05T14:15:00.622Z,31.95
2022-12-05T14:18:11.631Z,28.02
2022-12-05T14:21:21.568Z,29.33
2022-12-05T14:24:34.190Z,30.67
2022-12-05T14:27:50.907Z,33.10
2022-12-05T14:31:10.307Z,31.17
2022-12-05T14:34:25.972Z,32.67
2022-12-05T14:37:32.819Z,36.30
2022-12-05T14:40:39.213Z,32.13
2022-12-05T14:43:43.753Z,35.33
2022-12-05T14:46:46.807Z,31.05
2022-12-05T14:49:56.840Z,33.75
2022-12-05T14:53:28.974Z,30.83
2022-12-05T14:56:36.288Z,35.35
2022-12-05T15:03:24.650Z,36.28
2022-12-05T15:06:28.039Z,34.75
2022-12-05T15:09:53.418Z,34.40
2022-12-05T15:12:59.340Z,37.90
2022-12-05T15:16:08.541Z,39.93
2022-12-05T15:19:18.796Z,39.83
2022-12-05T15:22:25.450Z,37.13
2022-12-05T15:25:33.619Z,37.08
2022-12-05T15:28:36.471Z,35.75
2022-12-05T15:31:46.585Z,37.67
2022-12-05T15:34:54.844Z,37.28
2022-12-05T15:38:01.341Z,36.60
2022-12-05T15:41:05.661Z,39.15
2022-12-05T15:44:09.638Z,39.07
2022-12-05T15:47:22.941Z,41.33
2022-12-05T15:50:33.804Z,37.30
2022-12-05T15:53:43.340Z,39.85
2022-12-05T15:56:52.007Z,39.03
2022-12-05T16:00:03.673Z,41.47
2022-12-05T16:03:15.244Z,42.27
2022-12-05T16:06:21.812Z,40.05
2022-12-05T16:09:29.847Z,43.80
2022-12-05T16:12:40.490Z,42.47
2022-12-05T16:15:52.278Z,41.63
2022-12-05T16:18:59.682Z,52.23
2022-12-05T16:25:33.052Z,49.17
2022-12-05T16:28:38.621Z,54.80
2022-12-05T16:31:42.084Z,46.93
2022-12-05T16:34:46.697Z,46.17
2022-12-05T16:37:50.672Z,44.25
2022-12-05T16:40:59.316Z,39.47
2022-12-05T16:44:11.450Z,43.35
2022-12-05T16:47:24.932Z,42.60
2022-12-05T16:50:33.977Z,38.93
2022-12-05T16:53:37.653Z,36.25
2022-12-05T16:56:42.643Z,41.53
2022-12-05T16:59:49.357Z,42.40
2022-12-05T17:02:55.416Z,42.77
2022-12-05T17:05:59.703Z,38.53
2022-12-05T17:09:02.442Z,40.67
2022-12-05T17:12:13.784Z,41.28
2022-12-05T17:15:20.648Z,46.53
2022-12-05T17:18:30.965Z,47.40
2022-12-05T17:21:35.593Z,36.57
2022-12-05T17:24:39.531Z,42.20
2022-12-05T17:27:42.992Z,41.10
2022-12-05T17:30:48.420Z,38.20
2022-12-05T17:33:53.678Z,66.37
2022-12-05T17:36:57.710Z,52.03
2022-12-05T17:40:01.861Z,44.22
2022-12-05T17:43:05.715Z,41.63
2022-12-05T17:46:12.007Z,37.55
2022-12-05T17:49:15.259Z,33.83
2022-12-05T17:55:40.200Z,48.97
2022-12-05T17:58:44.228Z,41.10
2022-12-05T18:01:48.309Z,34.92
2022-12-05T18:04:52.365Z,35.03
2022-12-05T18:07:55.202Z,38.17
2022-12-05T18:10:59.516Z,36.42
2022-12-05T18:14:02.239Z,33.60
2022-12-05T18:17:07.626Z,37.05
2022-12-05T18:20:13.116Z,34.33
2022-12-05T18:23:17.093Z,34.67
2022-12-05T18:26:19.922Z,40.25
2022-12-05T18:29:23.978Z,30.30
2022-12-05T18:32:28.445Z,33.85
2022-12-05T18:35:44.644Z,34.73
2022-12-05T18:38:52.984Z,31.03
2022-12-05T18:41:55.757Z,29.33
2022-12-05T18:45:00.026Z,32.40
2022-12-05T18:48:23.416Z,31.27
2022-12-05T18:51:29.689Z,35.57
2022-12-05T18:54:33.623Z,32.47
2022-12-05T18:57:36.352Z,30.60
2022-12-05T19:00:40.334Z,29.52
2022-12-05T19:03:44.442Z,33.83
2022-12-05T19:06:53.152Z,30.20
2022-12-05T19:09:57.173Z,29.40
2022-12-05T19:13:01.090Z,28.83
2022-12-05T19:16:04.202Z,30.00
2022-12-05T19:19:12.566Z,29.75
2022-12-05T19:22:16.529Z,39.37
2022-12-05T19:25:19.220Z,29.27
2022-12-05T19:28:23.295Z,31.63
2022-12-05T19:31:29.056Z,31.05
2022-12-05T19:34:34.793Z,29.83
2022-12-05T19:37:38.730Z,30.20
2022-12-05T19:40:42.665Z,36.37
2022-12-05T19:43:45.708Z,33.80
2022-12-05T19:46:51.155Z,30.42
2022-12-05T19:49:55.223Z,32.83
2022-12-05T19:52:59.378Z,35.75
2022-12-05T19:56:02.762Z,35.37
2022-12-05T19:59:08.297Z,29.47
2022-12-05T20:02:11.110Z,30.60
2022-12-05T20:05:17.031Z,29.05
2022-12-05T20:08:19.797Z,31.38
2022-12-05T20:11:26.348Z,35.60
2022-12-05T20:14:30.302Z,31.87
2022-12-05T20:17:33.072Z,40.67
2022-12-05T20:20:38.395Z,33.53
2022-12-05T20:23:41.450Z,34.75
2022-12-05T20:26:46.599Z,36.00
2022-12-05T20:29:50.857Z,34.23
2022-12-05T20:32:53.568Z,31.88
2022-12-05T20:36:02.837Z,34.92
2022-12-05T20:39:07.726Z,34.17
2022-12-05T20:42:11.787Z,31.33
2022-12-05T20:45:14.504Z,33.07
2022-12-05T20:48:18.449Z,31.88
2022-12-05T20:51:24.377Z,32.38
2022-12-05T20:54:28.427Z,33.42
2022-12-05T20:57:33.088Z,28.50
2022-12-05T21:00:37.072Z,27.43
2022-12-05T21:03:42.125Z,27.00
2022-12-05T21:06:48.251Z,27.48
2022-12-05T21:09:50.971Z,27.85
2022-12-05T21:12:54.934Z,28.20
2022-12-05T21:15:57.677Z,27.47
2022-12-05T21:19:02.186Z,27.00
2022-12-05T21:22:06.392Z,20.65
2022-12-05T21:25:10.409Z,24.00
2022-12-05T21:28:13.099Z,25.20
2022-12-05T21:31:19.871Z,21.87
2022-12-05T21:34:22.935Z,24.13
2022-12-05T21:37:28.296Z,23.20
2022-12-05T21:40:30.985Z,21.70
2022-12-05T21:43:37.427Z,25.10
2022-12-05T21:46:41.411Z,24.57
2022-12-05T21:49:44.128Z,22.77
2022-12-05T21:52:49.468Z,21.52
2022-12-05T21:56:00.258Z,26.90
2022-12-05T21:59:04.359Z,26.33
2022-12-05T22:02:07.095Z,23.47
2022-12-05T22:05:11.840Z,23.20
2022-12-05T22:08:16.355Z,24.60
2022-12-05T22:11:22.796Z,22.70
2022-12-05T22:14:26.788Z,21.80
2022-12-05T22:17:29.466Z,21.67
2022-12-05T22:20:33.433Z,22.70
2022-12-05T22:23:37.497Z,23.42
2022-12-05T22:26:41.481Z,22.83
2022-12-05T22:29:49.799Z,24.67
2022-12-05T22:32:55.187Z,21.43
2022-12-05T22:36:01.071Z,22.00
2022-12-05T22:45:49.340Z,21.40
2022-12-05T22:48:52.797Z,28.35
2022-12-05T22:51:56.791Z,24.87
2022-12-05T22:55:01.163Z,24.50
2022-12-05T22:58:05.231Z,19.40
2022-12-05T23:01:12.454Z,23.27
2022-12-05T23:07:38.328Z,23.73
2022-12-05T23:10:42.453Z,23.70
2022-12-05T23:13:47.273Z,22.08
2022-12-05T23:16:50.022Z,23.85
2022-12-05T23:19:53.935Z,21.75
2022-12-05T23:22:57.227Z,24.57
2022-12-05T23:26:02.929Z,21.30
2022-12-05T23:29:07.257Z,23.40
2022-12-05T23:32:09.978Z,25.00
2022-12-05T23:35:13.928Z,21.88
2022-12-05T23:38:16.638Z,22.07
2022-12-05T23:41:23.522Z,23.50
2022-12-05T23:44:26.416Z,24.48
2022-12-05T23:47:30.778Z,21.95
2022-12-05T23:50:33.485Z,25.00
2022-12-05T23:53:39.602Z,22.47
2022-12-05T23:56:44.946Z,21.80
2022-12-05T23:59:47.662Z,22.08
